createdAt,value
2022-10-22T00:01:01.642Z,17.80
2022-10-22T00:03:28.841Z,17.60
2022-10-22T00:05:56.080Z,17.60
2022-10-22T00:08:25.711Z,17.70
2022-10-22T00:10:53.402Z,17.80
2022-10-22T00:13:21.294Z,17.70
2022-10-22T00:15:49.044Z,17.70
2022-10-22T00:18:19.208Z,17.80
2022-10-22T00:20:48.915Z,17.80
2022-10-22T00:23:16.696Z,17.70
2022-10-22T00:25:43.894Z,17.60
2022-10-22T00:28:11.753Z,17.70
2022-10-22T00:30:38.958Z,17.80
2022-10-22T00:33:11.002Z,17.60
2022-10-22T00:35:38.397Z,17.50
2022-10-22T00:38:06.079Z,17.50
2022-10-22T00:40:35.654Z,17.50
2022-10-22T00:43:03.359Z,17.40
2022-10-22T00:45:30.810Z,17.50
2022-10-22T00:48:05.545Z,17.50
2022-10-22T00:50:48.382Z,17.50
2022-10-22T00:53:40.442Z,17.50
2022-10-22T00:56:11.226Z,17.40
2022-10-22T00:58:44.501Z,17.40
2022-10-22T01:01:16.801Z,17.50
2022-10-22T01:03:44.403Z,17.60
2022-10-22T01:06:23.757Z,17.60
2022-10-22T01:09:18.481Z,17.60
2022-10-22T01:11:54.592Z,17.60
2022-10-22T01:14:27.788Z,17.70
2022-10-22T01:20:03.022Z,17.70
2022-10-22T01:22:39.009Z,17.70
2022-10-22T01:25:36.596Z,17.60
2022-10-22T01:28:17.697Z,17.50
2022-10-22T01:30:46.345Z,17.60
2022-10-22T01:33:17.870Z,17.60
2022-10-22T01:35:45.688Z,17.60
2022-10-22T01:38:16.414Z,17.50
2022-10-22T01:40:47.105Z,17.50
2022-10-22T01:43:15.225Z,17.50
2022-10-22T01:45:59.124Z,17.50
2022-10-22T01:48:35.609Z,17.50
2022-10-22T01:51:20.516Z,17.60
2022-10-22T01:54:08.658Z,17.60
2022-10-22T01:57:06.947Z,17.60
2022-10-22T01:59:59.212Z,17.50
2022-10-22T02:02:50.040Z,17.40
2022-10-22T02:05:28.931Z,17.40
2022-10-22T02:08:02.796Z,17.40
2022-10-22T02:10:30.563Z,17.50
2022-10-22T02:13:01.432Z,17.60
2022-10-22T02:15:34.740Z,17.50
2022-10-22T02:18:03.033Z,17.60
2022-10-22T02:20:32.819Z,17.60
2022-10-22T02:23:00.946Z,17.60
2022-10-22T02:25:34.190Z,17.70
2022-10-22T02:28:41.834Z,17.60
2022-10-22T02:31:15.791Z,17.70
2022-10-22T02:33:47.506Z,17.60
2022-10-22T02:36:16.419Z,17.50
2022-10-22T02:38:45.037Z,17.50
2022-10-22T02:41:12.725Z,17.40
2022-10-22T02:43:48.751Z,17.30
2022-10-22T02:46:18.519Z,17.30
2022-10-22T02:48:45.741Z,17.20
2022-10-22T02:51:13.508Z,17.30
2022-10-22T02:53:41.550Z,17.30
2022-10-22T02:56:09.515Z,17.20
2022-10-22T02:58:36.732Z,17.20
2022-10-22T03:01:06.875Z,17.20
2022-10-22T03:03:34.129Z,17.10
2022-10-22T03:06:01.337Z,17.10
2022-10-22T03:08:30.721Z,17.10
2022-10-22T03:11:00.316Z,17.10
2022-10-22T03:13:27.967Z,17.10
2022-10-22T03:15:55.788Z,17.00
2022-10-22T03:18:23.466Z,17.00
2022-10-22T03:20:50.667Z,17.00
2022-10-22T03:23:20.563Z,17.00
2022-10-22T03:25:49.687Z,16.90
2022-10-22T03:28:20.268Z,17.00
2022-10-22T03:30:49.854Z,17.00
2022-10-22T03:33:17.170Z,17.00
2022-10-22T03:35:46.727Z,16.90
2022-10-22T03:38:14.860Z,16.80
2022-10-22T03:40:44.333Z,16.80
2022-10-22T03:43:11.662Z,16.80
2022-10-22T03:48:10.924Z,16.80
2022-10-22T03:50:40.348Z,16.80
2022-10-22T03:53:10.456Z,16.80
2022-10-22T03:55:41.180Z,16.90
2022-10-22T03:58:08.397Z,16.90
2022-10-22T04:00:36.320Z,16.90
2022-10-22T04:03:03.613Z,16.90
2022-10-22T04:05:33.047Z,16.80
2022-10-22T04:08:00.885Z,16.80
2022-10-22T04:10:28.110Z,16.90
2022-10-22T04:12:57.766Z,16.90
2022-10-22T04:15:29.065Z,16.80
2022-10-22T04:17:56.944Z,16.80
2022-10-22T04:20:24.577Z,16.80
2022-10-22T04:22:58.839Z,16.90
2022-10-22T04:25:26.107Z,16.90
2022-10-22T04:27:53.319Z,17.00
2022-10-22T04:30:22.908Z,17.00
2022-10-22T04:32:50.586Z,16.90
2022-10-22T04:35:20.823Z,16.90
2022-10-22T04:37:48.243Z,16.90
2022-10-22T04:40:15.490Z,16.90
2022-10-22T04:42:45.593Z,16.80
2022-10-22T04:45:15.973Z,16.80
2022-10-22T04:47:43.500Z,16.80
2022-10-22T04:50:10.968Z,16.80
2022-10-22T04:52:42.812Z,16.70
2022-10-22T04:55:12.372Z,16.70
2022-10-22T04:57:39.907Z,16.70
2022-10-22T05:00:08.245Z,16.60
2022-10-22T05:02:37.984Z,16.60
2022-10-22T05:05:07.660Z,16.60
2022-10-22T05:07:37.168Z,16.60
2022-10-22T05:10:07.342Z,16.60
2022-10-22T05:12:35.624Z,16.60
2022-10-22T05:15:03.270Z,16.60
2022-10-22T05:17:30.848Z,16.60
2022-10-22T05:19:58.057Z,16.70
2022-10-22T05:22:25.681Z,16.70
2022-10-22T05:24:55.011Z,16.70
2022-10-22T05:27:22.196Z,16.70
2022-10-22T05:29:52.092Z,16.80
2022-10-22T05:32:19.722Z,16.80
2022-10-22T05:34:46.919Z,16.90
2022-10-22T05:37:16.391Z,16.80
2022-10-22T05:39:46.029Z,16.90
2022-10-22T05:42:13.235Z,16.90
2022-10-22T05:44:40.925Z,17.00
2022-10-22T05:47:08.647Z,17.00
2022-10-22T05:49:35.834Z,17.00
2022-10-22T05:52:03.073Z,17.10
2022-10-22T05:54:30.238Z,17.10
2022-10-22T05:56:59.788Z,17.10
2022-10-22T05:59:27.444Z,17.10
2022-10-22T06:01:54.700Z,17.10
2022-10-22T06:04:22.458Z,17.10
2022-10-22T06:06:51.899Z,17.10
2022-10-22T06:09:31.125Z,17.10
2022-10-22T06:11:58.871Z,17.10
2022-10-22T06:14:29.102Z,17.10
2022-10-22T06:17:01.668Z,17.20
2022-10-22T06:19:31.139Z,17.20
2022-10-22T06:21:58.456Z,17.20
2022-10-22T06:24:27.825Z,17.20
2022-10-22T06:26:55.042Z,17.20
2022-10-22T06:29:22.349Z,17.30
2022-10-22T06:31:50.181Z,17.20
2022-10-22T06:34:19.021Z,17.20
2022-10-22T06:36:49.443Z,17.20
2022-10-22T06:39:20.496Z,17.10
2022-10-22T06:41:48.191Z,17.10
2022-10-22T06:44:17.128Z,17.10
2022-10-22T06:46:46.562Z,17.10
2022-10-22T06:49:17.168Z,17.10
2022-10-22T06:51:45.016Z,17.00
2022-10-22T06:54:14.757Z,17.00
2022-10-22T06:56:42.569Z,17.10
2022-10-22T06:59:10.335Z,17.10
2022-10-22T07:01:39.118Z,17.10
2022-10-22T07:04:10.727Z,17.10
2022-10-22T07:06:40.901Z,17.10
2022-10-22T07:09:08.439Z,17.10
2022-10-22T07:11:44.836Z,17.10
2022-10-22T07:14:13.047Z,17.10
2022-10-22T07:16:43.056Z,17.10
2022-10-22T07:19:13.584Z,17.20
2022-10-22T07:21:43.866Z,17.20
2022-10-22T07:24:14.126Z,17.40
2022-10-22T07:26:41.347Z,17.40
2022-10-22T07:29:09.701Z,17.40
2022-10-22T07:31:41.804Z,17.40
2022-10-22T07:34:09.722Z,17.40
2022-10-22T07:36:37.468Z,17.40
2022-10-22T07:39:04.946Z,17.50
2022-10-22T07:41:32.179Z,17.60
2022-10-22T07:43:59.664Z,17.70
2022-10-22T07:46:27.839Z,17.70
2022-10-22T07:48:55.302Z,17.80
2022-10-22T07:51:22.815Z,17.90
2022-10-22T07:53:50.519Z,17.90
2022-10-22T07:56:17.762Z,17.80
2022-10-22T07:58:47.711Z,17.90
2022-10-22T08:01:18.280Z,18.00
2022-10-22T08:03:45.965Z,18.00
2022-10-22T08:06:17.872Z,18.00
2022-10-22T08:08:45.965Z,18.10
2022-10-22T08:11:16.535Z,18.10
2022-10-22T08:13:45.767Z,18.20
2022-10-22T08:16:13.882Z,18.30
2022-10-22T08:18:41.574Z,18.40
2022-10-22T08:21:14.121Z,18.50
2022-10-22T08:23:41.354Z,18.50
2022-10-22T08:26:13.723Z,18.60
2022-10-22T08:28:41.469Z,18.70
2022-10-22T08:31:09.872Z,18.60
2022-10-22T08:33:40.040Z,18.60
2022-10-22T08:36:07.947Z,18.70
2022-10-22T08:38:35.780Z,18.60
2022-10-22T08:41:13.565Z,18.60
2022-10-22T08:44:17.879Z,18.60
2022-10-22T08:46:44.947Z,18.50
2022-10-22T08:49:22.738Z,18.40
2022-10-22T08:51:50.484Z,18.30
2022-10-22T08:54:27.607Z,18.30
2022-10-22T08:57:07.825Z,18.10
2022-10-22T08:59:41.219Z,18.10
2022-10-22T09:02:50.251Z,18.10
2022-10-22T09:05:37.780Z,18.20
2022-10-22T09:08:09.426Z,18.20
2022-10-22T09:10:40.173Z,18.20
2022-10-22T09:13:11.849Z,18.10
2022-10-22T09:15:46.462Z,18.20
2022-10-22T09:18:32.617Z,18.30
2022-10-22T09:21:20.020Z,18.50
2022-10-22T09:24:05.996Z,18.70
2022-10-22T09:26:38.187Z,18.90
2022-10-22T09:29:07.013Z,19.50
2022-10-22T09:31:37.352Z,20.50
2022-10-22T09:34:07.527Z,20.70
2022-10-22T09:36:35.629Z,20.70
2022-10-22T09:39:04.301Z,20.60
2022-10-22T09:41:31.580Z,20.30
2022-10-22T09:44:01.352Z,20.10
2022-10-22T09:46:44.003Z,19.80
2022-10-22T09:49:17.909Z,19.60
2022-10-22T09:51:59.256Z,19.30
2022-10-22T09:54:34.775Z,19.10
2022-10-22T09:57:21.991Z,19.10
2022-10-22T09:59:51.445Z,19.30
2022-10-22T10:02:38.135Z,19.70
2022-10-22T10:05:07.023Z,19.90
2022-10-22T10:07:39.537Z,20.00
2022-10-22T10:10:20.025Z,20.00
2022-10-22T10:12:58.315Z,20.20
2022-10-22T10:15:58.826Z,21.30
2022-10-22T10:18:53.739Z,22.10
2022-10-22T10:21:26.714Z,22.40
2022-10-22T10:24:24.049Z,23.10
2022-10-22T10:27:08.814Z,23.40
2022-10-22T10:29:45.117Z,23.70
2022-10-22T10:32:37.238Z,23.50
2022-10-22T10:35:41.908Z,24.00
2022-10-22T10:38:36.234Z,24.30
2022-10-22T10:41:26.146Z,24.40
2022-10-22T10:44:05.606Z,24.40
2022-10-22T10:47:00.395Z,24.50
2022-10-22T10:49:32.847Z,24.90
2022-10-22T10:52:34.236Z,25.30
2022-10-22T10:55:29.212Z,24.90
2022-10-22T10:58:18.070Z,24.60
2022-10-22T11:00:56.989Z,24.60
2022-10-22T11:03:59.951Z,24.00
2022-10-22T11:06:32.532Z,23.60
2022-10-22T11:09:07.916Z,23.30
2022-10-22T11:11:45.427Z,23.60
2022-10-22T11:14:27.916Z,23.60
2022-10-22T11:17:17.461Z,23.80
2022-10-22T11:19:55.643Z,24.60
2022-10-22T11:22:34.722Z,25.30
2022-10-22T11:25:17.968Z,25.70
2022-10-22T11:28:09.145Z,25.60
2022-10-22T11:30:43.404Z,25.50
2022-10-22T11:33:17.658Z,25.60
2022-10-22T11:35:46.638Z,24.90
2022-10-22T11:38:20.620Z,24.40
2022-10-22T11:40:53.139Z,23.90
2022-10-22T11:43:33.206Z,23.40
2022-10-22T11:46:26.503Z,23.10
2022-10-22T11:49:13.435Z,23.10
2022-10-22T11:51:43.231Z,24.00
2022-10-22T11:54:31.678Z,24.20
2022-10-22T11:57:22.331Z,24.30
2022-10-22T12:00:00.569Z,24.80
2022-10-22T12:02:46.723Z,25.10
2022-10-22T12:05:25.020Z,25.30
2022-10-22T12:08:23.810Z,25.00
2022-10-22T12:11:21.528Z,24.60
2022-10-22T12:14:00.225Z,23.90
2022-10-22T12:16:54.509Z,23.40
2022-10-22T12:19:23.831Z,23.00
2022-10-22T12:22:18.126Z,22.70
2022-10-22T12:24:49.489Z,22.50
2022-10-22T12:27:34.729Z,22.40
2022-10-22T12:30:18.089Z,23.10
2022-10-22T12:32:46.922Z,24.00
2022-10-22T12:35:19.667Z,24.70
2022-10-22T12:37:51.794Z,25.40
2022-10-22T12:40:21.750Z,25.60
2022-10-22T12:42:56.123Z,25.60
2022-10-22T12:45:29.943Z,25.60
2022-10-22T12:48:06.074Z,25.10
2022-10-22T12:50:48.891Z,24.80
2022-10-22T12:53:20.827Z,24.70
2022-10-22T12:55:51.604Z,24.40
2022-10-22T12:58:22.209Z,24.10
2022-10-22T13:00:54.318Z,24.00
2022-10-22T13:03:50.326Z,24.20
2022-10-22T13:06:26.864Z,24.50
2022-10-22T13:09:20.427Z,24.80
2022-10-22T13:12:05.145Z,25.30
2022-10-22T13:14:34.994Z,26.20
2022-10-22T13:17:05.616Z,26.40
2022-10-22T13:19:44.066Z,26.70
2022-10-22T13:22:36.475Z,27.10
2022-10-22T13:25:26.869Z,26.90
2022-10-22T13:28:00.709Z,26.90
2022-10-22T13:30:36.786Z,26.80
2022-10-22T13:33:08.124Z,26.90
2022-10-22T13:35:39.130Z,26.90
2022-10-22T13:38:27.521Z,26.70
2022-10-22T13:40:58.110Z,26.70
2022-10-22T13:43:28.167Z,26.50
2022-10-22T13:45:59.083Z,26.20
2022-10-22T13:48:28.052Z,26.10
2022-10-22T13:50:55.966Z,26.20
2022-10-22T13:53:28.784Z,26.10
2022-10-22T13:55:56.463Z,26.10
2022-10-22T13:58:24.817Z,26.10
2022-10-22T14:00:58.036Z,25.90
2022-10-22T14:03:30.615Z,25.70
2022-10-22T14:05:58.233Z,25.10
2022-10-22T14:08:29.457Z,24.80
2022-10-22T14:10:56.679Z,24.60
2022-10-22T14:13:26.807Z,24.30
2022-10-22T14:15:56.852Z,24.00
2022-10-22T14:18:27.416Z,24.00
2022-10-22T14:20:57.792Z,23.80
2022-10-22T14:23:28.998Z,23.70
2022-10-22T14:25:57.684Z,23.90
2022-10-22T14:28:25.325Z,24.10
2022-10-22T14:30:53.244Z,24.20
2022-10-22T14:33:32.093Z,24.20
2022-10-22T14:36:01.260Z,24.10
2022-10-22T14:38:29.990Z,23.90
2022-10-22T14:40:59.368Z,23.70
2022-10-22T14:43:31.278Z,23.60
2022-10-22T14:46:01.093Z,23.40
2022-10-22T14:48:28.326Z,23.40
2022-10-22T14:50:55.579Z,23.40
2022-10-22T14:53:25.268Z,23.40
2022-10-22T14:55:55.497Z,23.40
2022-10-22T14:58:22.945Z,23.40
2022-10-22T15:00:53.175Z,23.50
2022-10-22T15:03:20.898Z,23.60
2022-10-22T15:05:53.681Z,23.60
2022-10-22T15:08:21.397Z,23.70
2022-10-22T15:11:08.682Z,23.60
2022-10-22T15:13:36.515Z,23.50
2022-10-22T15:16:07.574Z,23.30
2022-10-22T15:18:35.244Z,23.20
2022-10-22T15:21:06.126Z,23.10
2022-10-22T15:23:34.469Z,22.80
2022-10-22T15:26:09.163Z,22.70
2022-10-22T15:28:39.602Z,22.60
2022-10-22T15:31:12.001Z,22.40
2022-10-22T15:33:40.749Z,22.40
2022-10-22T15:36:13.964Z,22.40
2022-10-22T15:38:41.751Z,22.40
2022-10-22T15:41:11.917Z,22.40
2022-10-22T15:43:42.085Z,22.40
2022-10-22T15:46:14.116Z,22.40
2022-10-22T15:48:42.818Z,22.40
2022-10-22T15:51:20.274Z,22.30
2022-10-22T15:53:56.080Z,22.30
2022-10-22T15:56:24.631Z,22.20
2022-10-22T15:58:57.582Z,22.30
2022-10-22T16:01:27.938Z,22.20
2022-10-22T16:04:02.756Z,22.20
2022-10-22T16:06:33.793Z,22.10
2022-10-22T16:09:03.918Z,22.10
2022-10-22T16:11:34.471Z,22.00
2022-10-22T16:14:02.505Z,21.90
2022-10-22T16:16:31.791Z,21.80
2022-10-22T16:18:59.337Z,21.80
2022-10-22T16:21:27.440Z,21.70
2022-10-22T16:23:55.159Z,21.50
2022-10-22T16:26:24.830Z,21.40
2022-10-22T16:28:54.549Z,21.30
2022-10-22T16:31:24.126Z,21.30
2022-10-22T16:33:54.693Z,21.20
2022-10-22T16:36:22.278Z,21.10
2022-10-22T16:38:52.178Z,21.00
2022-10-22T16:41:24.984Z,20.90
2022-10-22T16:43:55.573Z,20.80
2022-10-22T16:46:23.178Z,20.50
2022-10-22T16:48:52.631Z,20.50
2022-10-22T16:51:25.724Z,20.50
2022-10-22T16:53:55.635Z,20.60
2022-10-22T16:56:23.780Z,20.60
2022-10-22T16:58:56.712Z,20.60
2022-10-22T17:01:27.470Z,20.50
2022-10-22T17:03:55.362Z,20.50
2022-10-22T17:06:24.309Z,20.40
2022-10-22T17:08:52.345Z,20.40
2022-10-22T17:11:22.437Z,20.30
2022-10-22T17:13:53.814Z,20.30
2022-10-22T17:16:24.289Z,20.30
2022-10-22T17:18:53.249Z,20.20
2022-10-22T17:21:21.346Z,20.10
2022-10-22T17:23:50.798Z,20.00
2022-10-22T17:26:22.859Z,20.00
2022-10-22T17:28:51.243Z,19.90
2022-10-22T17:31:21.941Z,19.90
2022-10-22T17:33:51.064Z,19.90
2022-10-22T17:36:19.671Z,19.90
2022-10-22T17:38:55.722Z,19.90
2022-10-22T17:41:32.927Z,19.80
2022-10-22T17:44:05.581Z,19.80
2022-10-22T17:46:33.906Z,19.80
2022-10-22T17:49:10.013Z,19.80
2022-10-22T17:51:40.323Z,19.70
2022-10-22T17:54:12.019Z,19.60
2022-10-22T17:56:42.415Z,19.60
2022-10-22T17:59:17.038Z,19.60
2022-10-22T18:01:47.776Z,19.50
2022-10-22T18:04:17.868Z,19.50
2022-10-22T18:06:50.133Z,19.40
2022-10-22T18:09:19.218Z,19.40
2022-10-22T18:11:48.300Z,19.20
2022-10-22T18:14:18.375Z,19.10
2022-10-22T18:16:46.073Z,18.90
2022-10-22T18:19:16.798Z,18.90
2022-10-22T18:21:44.109Z,18.80
2022-10-22T18:24:12.875Z,18.80
2022-10-22T18:26:43.036Z,18.90
2022-10-22T18:29:18.055Z,18.90
2022-10-22T18:31:46.315Z,18.80
2022-10-22T18:34:15.131Z,18.80
2022-10-22T18:36:43.741Z,18.80
2022-10-22T18:39:16.955Z,18.70
2022-10-22T18:41:46.722Z,18.70
2022-10-22T18:44:17.980Z,18.70
2022-10-22T18:46:45.517Z,18.70
2022-10-22T18:49:18.184Z,18.80
2022-10-22T18:51:52.550Z,18.80
2022-10-22T18:54:23.887Z,18.80
2022-10-22T18:56:56.296Z,18.70
2022-10-22T18:59:26.651Z,18.60
2022-10-22T19:01:59.346Z,18.50
2022-10-22T19:04:36.853Z,18.20
2022-10-22T19:09:36.858Z,18.10
2022-10-22T19:12:04.316Z,18.20
2022-10-22T19:14:35.086Z,18.20
2022-10-22T19:17:03.061Z,18.20
2022-10-22T19:19:32.654Z,18.20
2022-10-22T19:21:59.930Z,18.20
2022-10-22T19:24:27.309Z,18.10
2022-10-22T19:26:55.010Z,18.00
2022-10-22T19:29:24.754Z,18.00
2022-10-22T19:31:52.133Z,18.10
2022-10-22T19:34:20.188Z,18.10
2022-10-22T19:36:47.509Z,18.00
2022-10-22T19:39:16.572Z,17.90
2022-10-22T19:41:43.899Z,17.90
2022-10-22T19:44:13.943Z,17.90
2022-10-22T19:46:42.293Z,17.80
2022-10-22T19:49:12.305Z,17.90
2022-10-22T19:51:41.696Z,17.90
2022-10-22T19:54:18.383Z,17.90
2022-10-22T19:56:49.530Z,17.90
2022-10-22T19:59:20.626Z,17.80
2022-10-22T20:01:47.953Z,17.70
2022-10-22T20:04:18.083Z,17.60
2022-10-22T20:06:46.432Z,17.60
2022-10-22T20:09:13.755Z,17.50
2022-10-22T20:11:44.276Z,17.60
2022-10-22T20:14:12.097Z,17.60
2022-10-22T20:16:39.958Z,17.70
2022-10-22T20:19:08.688Z,17.60
2022-10-22T20:21:36.366Z,17.60
2022-10-22T20:24:08.487Z,17.60
2022-10-22T20:26:40.602Z,17.60
2022-10-22T20:29:07.862Z,17.40
2022-10-22T20:31:37.614Z,17.40
2022-10-22T20:34:07.461Z,17.20
2022-10-22T20:36:37.402Z,17.30
2022-10-22T20:39:08.129Z,17.40
2022-10-22T20:41:37.842Z,17.30
2022-10-22T20:44:05.589Z,17.40
2022-10-22T20:46:35.304Z,17.40
2022-10-22T20:49:10.715Z,17.40
2022-10-22T20:51:38.705Z,17.30
2022-10-22T20:54:07.425Z,17.30
2022-10-22T20:56:42.361Z,17.20
2022-10-22T20:59:12.777Z,17.20
2022-10-22T21:01:53.872Z,17.20
2022-10-22T21:04:22.297Z,17.20
2022-10-22T21:06:50.562Z,17.20
2022-10-22T21:09:18.370Z,17.20
2022-10-22T21:11:46.739Z,17.20
2022-10-22T21:14:19.928Z,17.10
2022-10-22T21:16:50.021Z,17.10
2022-10-22T21:19:19.008Z,17.10
2022-10-22T21:21:46.645Z,17.10
2022-10-22T21:24:16.789Z,17.10
2022-10-22T21:26:44.523Z,17.10
2022-10-22T21:29:12.880Z,17.10
2022-10-22T21:31:40.474Z,17.10
2022-10-22T21:34:08.531Z,17.10
2022-10-22T21:36:35.836Z,17.10
2022-10-22T21:39:03.687Z,17.10
2022-10-22T21:41:33.663Z,17.10
2022-10-22T21:44:01.346Z,17.10
2022-10-22T21:46:29.689Z,17.00
2022-10-22T21:49:02.077Z,17.10
2022-10-22T21:51:35.328Z,17.00
2022-10-22T21:54:02.603Z,17.00
2022-10-22T21:56:32.826Z,17.00
2022-10-22T21:59:01.232Z,17.00
2022-10-22T22:01:29.265Z,17.00
2022-10-22T22:03:59.351Z,17.00
2022-10-22T22:06:33.065Z,17.00
2022-10-22T22:09:02.323Z,17.00
2022-10-22T22:11:32.202Z,16.80
2022-10-22T22:14:00.203Z,16.80
2022-10-22T22:16:31.222Z,16.80
2022-10-22T22:19:00.488Z,16.80
2022-10-22T22:21:30.768Z,16.80
2022-10-22T22:23:58.981Z,16.80
2022-10-22T22:26:30.116Z,16.90
2022-10-22T22:28:59.170Z,16.90
2022-10-22T22:31:29.281Z,16.70
2022-10-22T22:34:08.157Z,16.70
2022-10-22T22:36:40.720Z,16.70
2022-10-22T22:39:14.490Z,16.70
2022-10-22T22:41:42.789Z,16.60
2022-10-22T22:44:10.391Z,16.60
2022-10-22T22:46:37.714Z,16.70
2022-10-22T22:49:05.814Z,16.70
2022-10-22T22:51:36.785Z,16.70
2022-10-22T22:54:04.056Z,16.70
2022-10-22T22:56:34.237Z,16.70
2022-10-22T22:59:02.338Z,16.70
2022-10-22T23:01:32.458Z,16.80
2022-10-22T23:04:05.260Z,16.70
2022-10-22T23:06:36.162Z,16.70
2022-10-22T23:09:08.987Z,16.60
2022-10-22T23:11:36.663Z,16.60
2022-10-22T23:14:08.481Z,16.60
2022-10-22T23:16:38.468Z,16.60
2022-10-22T23:19:08.657Z,16.60
2022-10-22T23:21:39.142Z,16.60
2022-10-22T23:24:11.901Z,16.50
2022-10-22T23:26:43.002Z,16.30
2022-10-22T23:29:22.190Z,16.10
2022-10-22T23:31:51.041Z,15.80
2022-10-22T23:34:23.161Z,15.90
2022-10-22T23:36:54.461Z,16.00
2022-10-22T23:39:27.476Z,16.00
2022-10-22T23:41:54.860Z,16.00
2022-10-22T23:44:25.125Z,16.10
2022-10-22T23:46:57.607Z,16.10
2022-10-22T23:49:24.808Z,16.10
2022-10-22T23:51:54.140Z,16.10
2022-10-22T23:54:23.618Z,16.10
2022-10-22T23:56:50.852Z,16.10
2022-10-22T23:59:18.088Z,16.00
